• Join FlightAware (Why Join?)
  • Login
  • US Flag 
07:11AM EDT


 

Airport Tracker/Info


-or-


 

Live Flight TrackerFlight Track Log ✈ SKW6238 ✈ 26-Apr-2014 ✈ KACV - KSFO

Flight Track Log - Related Links

Times and Time Zones

All times are in EDT time to prevent confusion due to time zone crossing. See the SKW6238 flight status page for this flight to view local times or setup timezone preferences in your user account.

Time Position Orientation Groundspeed Altitude Reporting Facility
EDT Latitude Longitude Course Direction KTS MPH feet Rate Location/Type
04:32PM 40.9714 -124.1464 227° Southwest 161 185 3,100  Level Oakland Center
04:33PM 40.9214 -124.1386 173° South 173 199 4,700 1,620 Climbing Oakland Center
04:34PM 40.8683 -124.1206 166° South 187 215 6,500 1,740 Climbing Oakland Center
04:35PM 40.7044 -124.2428 169° South  Level FlightAware Approximate
04:35PM 40.8161 -124.0942 159° South 196 226 8,300  Level Oakland Center
04:36PM 40.6348 -124.2094 150° Southeast  Level FlightAware Approximate
04:36PM 40.7594 -124.0694 162° South 205 236 10,000  Level Oakland Center
04:37PM 40.6858 -124.0317 159° South 223 257 11,800 1,620 Climbing Seattle Center
04:38PM 40.6194 -124.0067 164° South 240 276 13,400 1,380 Climbing Seattle Center
04:39PM 40.5528 -123.9747 160° South 249 287 14,700 1,200 Climbing Seattle Center
04:40PM 40.4825 -123.9425 161° South 259 298 15,900 1,200 Climbing Seattle Center
04:41PM 40.4108 -123.9094 161° South 266 306 17,200 1,080 Climbing Seattle Center
04:42PM 40.3392 -123.8767 161° South 266 306 18,100 900 Climbing Oakland Center
04:43PM 40.2628 -123.8400 160° South 290 334 19,000 780 Climbing Oakland Center
04:44PM 40.1831 -123.8042 161° South 299 344 19,800 780 Climbing Oakland Center
04:45PM 40.1031 -123.7667 160° South 306 352 20,600 780 Climbing Oakland Center
04:46PM 40.0211 -123.7297 161° South 307 353 21,400 720 Climbing Oakland Center
04:47PM 39.9378 -123.6933 161° South 311 358 22,100 660 Climbing Oakland Center
04:48PM 39.8544 -123.6558 161° South 313 360 22,800 600 Climbing Oakland Center
04:49PM 39.7703 -123.6175 161° South 318 366 23,400 540 Climbing Oakland Center
04:50PM 39.6850 -123.5792 161° South 319 367 24,000 540 Climbing Oakland Center
04:51PM 39.5997 -123.5375 159° South 325 374 24,600 480 Climbing Oakland Center
04:52PM 39.5147 -123.4997 161° South 325 374 25,000 180 Climbing Oakland Center
04:53PM 39.4111 -123.4542 161° South 333 383 25,000  Level Oakland Center
04:54PM 39.3222 -123.4122 160° South 338 389 25,000  Level Oakland Center
04:55PM 39.2328 -123.3739 162° South 338 389 25,000  Level Oakland Center
04:56PM 39.1442 -123.3317 160° South 339 390 25,000 -60 Level Oakland Center
04:57PM 39.0528 -123.2931 162° South 342 394 24,900 -420 Descending Oakland Center
04:58PM 38.9614 -123.2522 161° South 346 398 24,200 -1,140 Descending Oakland Center
04:59PM 38.8611 -123.2097 162° South 376 433 22,700 -1,560 Descending Oakland Center
05:00PM 38.7608 -123.1675 162° South 378 435 21,100 -2,040 Descending Oakland Center
05:01PM 38.6411 -123.1131 160° South 381 438 18,600 -2,220 Descending Oakland Center
05:03PM 38.5425 -123.0703 161° South 380 437 16,600 -1,980 Descending Oakland Center
05:04PM 38.4489 -123.0297 161° South 360 414 14,600 -1,860 Descending Oakland Center
05:05PM 38.3594 -122.9908 161° South 344 396 12,900 -1,380 Descending Oakland Center
05:06PM 38.2753 -122.9525 160° South 327 376 11,800 -960 Descending Oakland Center
05:07PM 38.1917 -122.9164 161° South 322 371 11,000 -420 Descending Oakland Center
05:08PM 38.1122 -122.8819 161° South 312 359 11,000  Level Oakland Center
05:09PM 38.0450 -122.8306 149° Southeast 296 341 11,000  Level Oakland Center
05:10PM 37.9842 -122.7644 139° Southeast 291 335 11,000  Level Oakland Center
05:11PM 37.9122 -122.6872 140° Southeast 291 335 11,000  Level Oakland Center
05:12PM 37.8542 -122.6247 140° Southeast 287 330 11,000  Level Oakland Center
05:13PM 37.7942 -122.5611 140° Southeast 287 330 11,000  Level Oakland Center
05:14PM 37.7489 -122.4844 127° Southeast 283 326 11,000 -300 Level Oakland Center
05:15PM 37.7169 -122.3953 114° Southeast 282 325 10,500 -1,020 Descending Oakland Center
05:15PM 37.7000 -122.3167 105° East 266 306 9,400 -1,500 Descending Northern Cal TRACON
05:16PM 37.6667 -122.2333 117° Southeast 281 323 8,100 -1,320 Descending Northern Cal TRACON
05:17PM 37.6333 -122.1667 122° Southeast 246 283 6,800 -1,320 Descending Northern Cal TRACON
05:18PM 37.6000 -122.1000 122° Southeast 244 281 5,600 -1,500 Descending Northern Cal TRACON
05:19PM 37.5333 -122.1333 202° Southwest 227 261 3,900 -1,080 Descending Northern Cal TRACON
05:20PM 37.5500 -122.1833 293° West 208 239 3,500 -540 Descending Northern Cal TRACON
05:21PM 37.5564 -122.2267 281° West 208 239 3,100 -1,140 Descending Oakland Center
05:22PM 37.5767 -122.2775 297° West 182 209 1,700 -1,080 Descending Oakland Center
05:23PM 37.5928 -122.3144 299° West 145 167 1,000 -660 Descending Oakland Center
05:24PM 37.6072 -122.3494 298° West 126 145 400 -600 Descending Oakland Center